Terminal Aerodrome Forecast
Issued by NWS

Home | Current Version | Previous Version | Graphics & Text | Print | Product List | Glossary On
Versions: 1 2 3 4 5 6 7 8 9 10 11 12 13 14 15 16 17 18 19 20
666
FTUS43 KBIS 221127
TAFMOT
TAF
KMOT 221127Z 2212/2312 29004KT P6SM SKC
     FM221500 02005KT P6SM FEW200
     FM221800 09008KT P6SM SCT200
     FM230000 10011KT P6SM BKN150
     FM230300 11010KT P6SM SHRA VCTS BKN090CB=

USA.gov is the U.S. government's official web portal to all federal, state and local government web resources and services.